Dawson, IA (50066)

6:36 AM CST on December 06, 2016 (GMT -0600)
| | Change Station

Elev -9999 ft 0.00 °N, 0.00 °E | Updated

Clear
Clear
27 °F
Feels Like 14 °F
N
18
Wind Variable Wind from WNW
Gusts 26 mph

Today
High -- | Low -- °F
--% Chance of Precip.
Yesterday
High -- | Low -- °F
Precip. -- in
Pressure 29.89 in
Visibility 10.0 miles
Clouds Mostly Cloudy 2100 ft
Overcast 11000 ft
Windchill 14 °F
Dew Point 15 °F
Humidity 60%
Rainfall --
Snow Depth Not available.
7:30 AM 4:45 PM
Waxing Crescent, 41% visible
METAR KPRO 061235Z AUTO 29015G21KT 10SM BKN021 OVC110 M02/M04 A2989 RMK AO2 T10161041
Pressure 29.89 in
Visibility 10.0 miles
Clouds Mostly Cloudy 2100 ft
Overcast 11000 ft
Windchill 14 °F
Dew Point 15 °F
Humidity 60%
Rainfall --
Snow Depth Not available.
7:30 AM 4:45 PM
Waxing Crescent, 41% visible
METAR KPRO 061235Z AUTO 29015G21KT 10SM BKN021 OVC110 M02/M04 A2989 RMK AO2 T10161041

10-Day Weather Forecast

Almanac

Astronomy

Dec. 06, 2016 Rise Set
Actual Time
Civil Twilight
Nautical Twilight
Astronomical Twilight
Moon
Length of Visible Light
Length of Day
Tomorrow will be .
, % of the Moon is Illuminated

Today's Extremes

State Highs State Lows

Community

WunderPhotos

Upload Photos

1,955,936 photos uploaded!

WunderBlog® & News

Nearby

Air Quality

  Air Quality AQ Index Pollutant
Not available.

Snow Depth

Station Depth Elevation

Earthquake Activity

City Distance Mag. Time & Date
Minimum magnitude displayed is 2.5.

Coastal Water Temperatures

Place Temperature

Stations

Nearby Weather Stations

Station Location Temp. Windchill Dew Point Humidity Wind Precip. Elev Updated Type
                   

Watches & Warnings

There are currently no watches in effect.